createdAt,value
2023-04-18T00:00:21.337Z,74.56
2023-04-18T00:03:24.124Z,74.81
2023-04-18T00:06:26.875Z,74.61
2023-04-18T00:09:28.902Z,75.26
2023-04-18T00:12:32.103Z,74.70
2023-04-18T00:15:35.700Z,74.54
2023-04-18T00:18:37.684Z,74.69
2023-04-18T00:21:45.132Z,74.54
2023-04-18T00:24:47.557Z,74.79
2023-04-18T00:27:49.581Z,75.38
2023-04-18T00:30:52.780Z,75.71
2023-04-18T00:33:54.970Z,75.42
2023-04-18T00:36:58.982Z,75.04
2023-04-18T00:40:00.955Z,75.49
2023-04-18T00:43:03.213Z,75.20
2023-04-18T00:46:05.403Z,75.20
2023-04-18T00:49:08.223Z,74.57
2023-04-18T00:52:12.153Z,75.10
2023-04-18T00:55:16.404Z,74.96
2023-04-18T00:58:18.399Z,75.50
2023-04-18T01:01:20.449Z,75.30
2023-04-18T01:04:22.718Z,76.06
2023-04-18T01:07:26.671Z,75.33
2023-04-18T01:10:32.041Z,75.29
2023-04-18T01:13:34.067Z,75.80
2023-04-18T01:16:39.044Z,75.52
2023-04-18T01:19:41.129Z,75.84
2023-04-18T01:22:43.392Z,75.63
2023-04-18T01:25:47.206Z,75.19
2023-04-18T01:28:49.199Z,75.09
2023-04-18T01:31:51.230Z,75.13
2023-04-18T01:34:53.211Z,75.79
2023-04-18T01:37:55.632Z,76.12
2023-04-18T01:40:57.565Z,75.99
2023-04-18T01:44:00.208Z,75.90
2023-04-18T01:47:02.589Z,76.37
2023-04-18T01:50:08.100Z,75.76
2023-04-18T01:53:10.062Z,75.43
2023-04-18T01:56:12.058Z,76.23
2023-04-18T01:59:14.085Z,76.22
2023-04-18T02:02:16.534Z,75.45
2023-04-18T02:05:19.060Z,76.64
2023-04-18T02:08:21.386Z,76.18
2023-04-18T02:11:23.360Z,76.53
2023-04-18T02:14:30.248Z,76.97
2023-04-18T02:17:36.473Z,76.77
2023-04-18T02:20:38.734Z,77.27
2023-04-18T02:23:40.754Z,75.88
2023-04-18T02:26:43.378Z,75.99
2023-04-18T02:29:46.026Z,76.83
2023-04-18T02:32:52.265Z,76.97
2023-04-18T02:35:54.330Z,77.09
2023-04-18T02:38:56.704Z,77.07
2023-04-18T02:41:59.030Z,76.89
2023-04-18T02:45:01.026Z,76.52
2023-04-18T02:48:03.099Z,76.53
2023-04-18T02:51:07.779Z,76.35
2023-04-18T02:54:12.059Z,76.47
2023-04-18T02:57:30.000Z,76.30
2023-04-18T03:00:37.517Z,76.69
2023-04-18T03:03:59.927Z,76.85
2023-04-18T03:07:09.578Z,76.45
2023-04-18T03:10:13.894Z,76.67
2023-04-18T03:13:17.635Z,76.67
2023-04-18T03:16:20.033Z,76.70
2023-04-18T03:19:23.836Z,76.19
2023-04-18T03:22:27.935Z,76.00
2023-04-18T03:25:34.584Z,75.90
2023-04-18T03:28:37.618Z,76.50
2023-04-18T03:31:41.769Z,76.33
2023-04-18T03:34:44.320Z,76.58
2023-04-18T03:37:46.481Z,76.51
2023-04-18T03:40:55.440Z,76.30
2023-04-18T03:44:05.387Z,76.15
2023-04-18T03:47:11.382Z,76.49
2023-04-18T03:50:16.733Z,76.36
2023-04-18T03:53:20.531Z,76.38
2023-04-18T03:56:23.575Z,75.80
2023-04-18T03:59:27.590Z,76.48
2023-04-18T04:02:30.748Z,76.50
2023-04-18T04:05:33.186Z,76.36
2023-04-18T04:08:35.213Z,76.76
2023-04-18T04:11:37.907Z,76.60
2023-04-18T04:14:42.505Z,76.72
2023-04-18T04:17:44.754Z,77.16
2023-04-18T04:20:48.103Z,77.35
2023-04-18T04:24:10.634Z,77.62
2023-04-18T04:27:19.133Z,77.50
2023-04-18T04:30:21.914Z,77.97
2023-04-18T04:33:26.044Z,77.91
2023-04-18T04:36:30.890Z,77.63
2023-04-18T04:39:34.326Z,77.19
2023-04-18T04:42:56.947Z,77.45
2023-04-18T04:46:07.823Z,77.57
2023-04-18T04:49:09.960Z,77.76
2023-04-18T04:52:12.030Z,77.94
2023-04-18T04:55:14.098Z,77.39
2023-04-18T04:58:18.002Z,77.27
2023-04-18T05:01:59.869Z,77.34
2023-04-18T05:05:01.972Z,77.34
2023-04-18T05:08:04.943Z,77.62
2023-04-18T05:11:07.079Z,77.64
2023-04-18T05:14:09.224Z,77.50
2023-04-18T05:17:11.281Z,77.06
2023-04-18T05:20:13.353Z,77.78
2023-04-18T05:23:15.372Z,77.45
2023-04-18T05:26:18.874Z,77.04
2023-04-18T05:29:20.913Z,77.76
2023-04-18T05:32:24.221Z,77.58
2023-04-18T05:35:26.396Z,77.95
2023-04-18T05:38:28.389Z,78.01
2023-04-18T05:41:30.554Z,77.43
2023-04-18T05:44:32.598Z,77.25
2023-04-18T05:47:34.667Z,77.26
2023-04-18T05:50:36.814Z,76.97
2023-04-18T05:53:38.869Z,77.34
2023-04-18T05:56:41.053Z,77.34
2023-04-18T05:59:43.260Z,77.84
2023-04-18T06:02:45.386Z,77.80
2023-04-18T06:05:47.507Z,77.18
2023-04-18T06:08:49.537Z,76.98
2023-04-18T06:11:51.557Z,76.64
2023-04-18T06:14:53.598Z,77.85
2023-04-18T06:17:55.660Z,76.65
2023-04-18T06:20:57.729Z,77.24
2023-04-18T06:24:01.508Z,76.85
2023-04-18T06:27:03.902Z,76.97
2023-04-18T06:30:07.868Z,76.77
2023-04-18T06:33:11.242Z,76.49
2023-04-18T06:36:13.298Z,75.42
2023-04-18T06:39:15.393Z,75.75
2023-04-18T06:42:17.699Z,76.02
2023-04-18T06:45:22.854Z,76.25
2023-04-18T06:48:24.884Z,76.29
2023-04-18T06:51:27.732Z,75.90
2023-04-18T06:54:29.780Z,75.93
2023-04-18T06:57:31.824Z,75.41
2023-04-18T07:00:33.899Z,75.81
2023-04-18T07:03:36.079Z,75.45
2023-04-18T07:06:38.310Z,75.99
2023-04-18T07:09:40.386Z,76.30
2023-04-18T07:12:42.344Z,76.48
2023-04-18T07:15:44.470Z,75.74
2023-04-18T07:18:46.435Z,76.09
2023-04-18T07:21:48.483Z,75.39
2023-04-18T07:24:50.579Z,75.57
2023-04-18T07:27:52.559Z,75.53
2023-04-18T07:30:57.045Z,76.07
2023-04-18T07:33:59.193Z,76.02
2023-04-18T07:37:01.497Z,75.90
2023-04-18T07:40:04.514Z,75.19
2023-04-18T07:43:06.502Z,74.57
2023-04-18T07:46:08.725Z,74.99
2023-04-18T07:49:10.926Z,75.75
2023-04-18T07:52:13.042Z,74.92
2023-04-18T07:55:15.140Z,75.05
2023-04-18T07:58:17.600Z,74.83
2023-04-18T08:01:21.237Z,75.97
2023-04-18T08:04:23.488Z,75.68
2023-04-18T08:07:25.983Z,75.77
2023-04-18T08:10:28.347Z,76.20
2023-04-18T08:13:30.585Z,75.80
2023-04-18T08:16:32.645Z,75.52
2023-04-18T08:19:34.770Z,75.05
2023-04-18T08:22:44.185Z,75.41
2023-04-18T08:25:58.915Z,75.83
2023-04-18T08:29:00.960Z,74.73
2023-04-18T08:32:03.142Z,75.54
2023-04-18T08:35:05.497Z,74.87
2023-04-18T08:38:07.803Z,73.98
2023-04-18T08:41:09.986Z,74.78
2023-04-18T08:44:12.540Z,74.81
2023-04-18T08:47:14.888Z,75.07
2023-04-18T08:50:17.513Z,75.00
2023-04-18T08:53:19.573Z,75.06
2023-04-18T08:56:26.188Z,74.93
2023-04-18T08:59:28.296Z,73.95
2023-04-18T09:02:39.191Z,74.41
2023-04-18T09:05:41.560Z,74.28
2023-04-18T09:08:55.061Z,73.95
2023-04-18T09:12:18.540Z,73.88
2023-04-18T09:15:23.871Z,72.66
2023-04-18T09:18:26.120Z,73.60
2023-04-18T09:21:29.899Z,73.18
2023-04-18T09:24:32.672Z,73.60
2023-04-18T09:27:35.413Z,73.22
2023-04-18T09:30:40.196Z,72.87
2023-04-18T09:33:57.110Z,72.58
2023-04-18T09:37:07.966Z,72.05
2023-04-18T09:40:20.543Z,70.94
2023-04-18T09:43:22.577Z,70.98
2023-04-18T09:46:25.550Z,70.46
2023-04-18T09:49:27.871Z,70.22
2023-04-18T09:52:40.375Z,69.86
2023-04-18T09:55:43.156Z,70.51
2023-04-18T09:58:47.637Z,71.17
2023-04-18T10:01:50.970Z,70.46
2023-04-18T10:04:56.273Z,70.56
2023-04-18T10:07:58.850Z,69.53
2023-04-18T10:11:01.339Z,70.34
2023-04-18T10:14:08.006Z,69.68
2023-04-18T10:17:11.316Z,68.83
2023-04-18T10:20:20.286Z,68.91
2023-04-18T10:23:34.978Z,67.75
2023-04-18T10:26:50.573Z,68.42
2023-04-18T10:29:54.985Z,67.81
2023-04-18T10:32:57.044Z,69.01
2023-04-18T10:36:20.782Z,69.12
2023-04-18T10:39:24.452Z,69.00
2023-04-18T10:42:58.743Z,69.34
2023-04-18T10:46:23.988Z,69.24
2023-04-18T10:49:35.403Z,69.15
2023-04-18T10:52:37.565Z,68.41
2023-04-18T10:55:44.885Z,69.06
2023-04-18T10:58:51.524Z,68.32
2023-04-18T11:02:04.780Z,68.59
2023-04-18T11:05:08.640Z,68.96
2023-04-18T11:08:29.052Z,68.44
2023-04-18T11:11:31.014Z,68.06
2023-04-18T11:14:48.453Z,67.10
2023-04-18T11:18:04.711Z,67.62
2023-04-18T11:21:06.847Z,66.52
2023-04-18T11:24:08.975Z,65.85
2023-04-18T11:27:12.473Z,65.03
2023-04-18T11:30:15.816Z,65.30
2023-04-18T11:33:18.096Z,66.52
2023-04-18T11:36:20.235Z,67.07
2023-04-18T11:39:22.892Z,65.55
2023-04-18T11:42:31.179Z,66.02
2023-04-18T11:45:33.829Z,66.77
2023-04-18T11:48:40.929Z,65.45
2023-04-18T11:51:46.419Z,64.55
2023-04-18T11:54:48.630Z,65.51
2023-04-18T11:58:00.697Z,65.67
2023-04-18T12:01:18.773Z,65.46
2023-04-18T12:04:21.345Z,67.48
2023-04-18T12:07:33.914Z,66.22
2023-04-18T12:10:38.726Z,68.66
2023-04-18T12:13:40.816Z,67.24
2023-04-18T12:16:42.847Z,67.05
2023-04-18T12:19:49.673Z,68.08
2023-04-18T12:22:54.399Z,67.73
2023-04-18T12:26:01.506Z,66.69
2023-04-18T12:29:03.484Z,67.15
2023-04-18T12:32:06.341Z,67.95
2023-04-18T12:35:08.981Z,68.65
2023-04-18T12:38:11.236Z,69.24
2023-04-18T12:41:13.222Z,69.33
2023-04-18T12:44:16.488Z,68.96
2023-04-18T12:47:18.736Z,68.57
2023-04-18T12:50:26.050Z,69.73
2023-04-18T12:53:28.311Z,69.41
2023-04-18T12:56:30.325Z,69.91
2023-04-18T12:59:32.390Z,69.15
2023-04-18T13:02:37.557Z,69.30
2023-04-18T13:05:39.759Z,70.47
2023-04-18T13:08:42.907Z,69.68
2023-04-18T13:11:45.252Z,70.93
2023-04-18T13:14:47.219Z,70.71
2023-04-18T13:17:49.808Z,71.90
2023-04-18T13:20:52.739Z,71.28
2023-04-18T13:23:54.894Z,72.98
2023-04-18T13:26:57.066Z,73.54
2023-04-18T13:29:59.073Z,75.48
2023-04-18T13:33:01.089Z,76.11
2023-04-18T13:36:03.424Z,77.42
2023-04-18T13:39:05.977Z,77.63
2023-04-18T13:42:08.215Z,77.20
2023-04-18T13:45:10.794Z,77.79
2023-04-18T13:48:14.447Z,77.00
2023-04-18T13:51:18.228Z,77.95
2023-04-18T13:54:20.337Z,76.96
2023-04-18T13:57:23.414Z,76.79
2023-04-18T14:00:25.527Z,77.82
2023-04-18T14:03:28.809Z,77.12
2023-04-18T14:06:32.745Z,76.00
2023-04-18T14:09:34.912Z,76.31
2023-04-18T14:12:37.020Z,75.42
2023-04-18T14:15:39.256Z,74.83
2023-04-18T14:18:41.359Z,75.13
2023-04-18T14:21:43.327Z,75.09
2023-04-18T14:24:45.648Z,75.71
2023-04-18T14:27:48.878Z,76.05
2023-04-18T14:30:52.213Z,76.53
2023-04-18T14:33:54.374Z,75.05
2023-04-18T14:36:56.418Z,75.32
2023-04-18T14:39:58.397Z,75.38
2023-04-18T14:43:00.754Z,75.81
2023-04-18T14:46:02.772Z,75.10
2023-04-18T14:49:04.756Z,75.10
2023-04-18T14:52:06.807Z,76.40
2023-04-18T14:55:09.819Z,76.31
2023-04-18T14:58:11.819Z,77.42
2023-04-18T15:01:13.900Z,78.67
2023-04-18T15:04:16.276Z,79.91
2023-04-18T15:07:18.643Z,79.95
2023-04-18T15:10:22.693Z,80.33
2023-04-18T15:13:25.451Z,81.58
2023-04-18T15:16:27.726Z,82.25
2023-04-18T15:19:31.286Z,82.91
2023-04-18T15:22:34.058Z,82.31
2023-04-18T15:25:36.077Z,82.05
2023-04-18T15:28:38.119Z,80.51
2023-04-18T15:31:40.106Z,81.17
2023-04-18T15:34:42.127Z,80.05
2023-04-18T15:37:44.180Z,79.87
2023-04-18T15:40:46.208Z,79.35
2023-04-18T15:43:48.359Z,79.72
2023-04-18T15:46:50.919Z,79.05
2023-04-18T15:49:53.484Z,79.77
2023-04-18T15:52:56.577Z,79.83
2023-04-18T15:56:01.892Z,79.08
2023-04-18T15:59:06.033Z,79.69
2023-04-18T16:02:09.710Z,79.75
2023-04-18T16:05:12.637Z,79.17
2023-04-18T16:08:14.896Z,79.71
2023-04-18T16:11:17.353Z,80.15
2023-04-18T16:14:19.540Z,79.99
2023-04-18T16:17:21.584Z,79.47
2023-04-18T16:20:23.831Z,79.91
2023-04-18T16:23:26.614Z,80.29
2023-04-18T16:26:29.190Z,81.08
2023-04-18T16:29:31.221Z,81.67
2023-04-18T16:32:33.365Z,80.41
2023-04-18T16:35:35.809Z,80.74
2023-04-18T16:38:37.982Z,80.83
2023-04-18T16:41:39.948Z,80.62
2023-04-18T16:44:42.085Z,80.20
2023-04-18T16:47:44.078Z,80.96
2023-04-18T16:50:46.196Z,81.64
2023-04-18T16:53:48.287Z,82.65
2023-04-18T16:56:50.404Z,83.70
2023-04-18T16:59:52.529Z,84.61
2023-04-18T17:02:56.315Z,85.01
2023-04-18T17:05:58.662Z,85.57
2023-04-18T17:09:01.004Z,86.02
2023-04-18T17:12:03.580Z,86.32
2023-04-18T17:15:06.074Z,86.39
2023-04-18T17:18:08.471Z,86.18
2023-04-18T17:21:12.751Z,86.24
2023-04-18T17:24:14.954Z,86.07
2023-04-18T17:27:17.391Z,85.76
2023-04-18T17:30:19.966Z,86.04
2023-04-18T17:33:22.317Z,85.41
2023-04-18T17:36:25.375Z,85.92
2023-04-18T17:39:28.043Z,85.30
2023-04-18T17:42:31.283Z,85.81
2023-04-18T17:45:33.524Z,86.11
2023-04-18T17:48:35.840Z,85.04
2023-04-18T17:51:38.360Z,84.63
2023-04-18T17:54:41.412Z,85.57
2023-04-18T17:57:43.814Z,85.23
2023-04-18T18:00:46.998Z,85.52
2023-04-18T18:03:50.263Z,85.45
2023-04-18T18:06:58.470Z,85.25
2023-04-18T18:10:10.250Z,84.85
2023-04-18T18:13:13.191Z,84.44
2023-04-18T18:16:16.697Z,84.00
2023-04-18T18:19:21.607Z,83.80
2023-04-18T18:22:26.530Z,84.72
2023-04-18T18:25:29.365Z,85.06
2023-04-18T18:28:32.883Z,85.41
2023-04-18T18:31:39.508Z,84.48
2023-04-18T18:34:43.125Z,84.12
2023-04-18T18:37:49.083Z,85.13
2023-04-18T18:40:52.337Z,85.44
2023-04-18T18:43:55.128Z,85.08
2023-04-18T18:46:59.437Z,85.23
2023-04-18T18:50:05.342Z,85.79
2023-04-18T18:53:08.742Z,86.11
2023-04-18T18:56:11.760Z,85.82
2023-04-18T18:59:16.416Z,84.73
2023-04-18T19:02:19.723Z,85.66
2023-04-18T19:05:23.400Z,86.22
2023-04-18T19:08:26.242Z,86.41
2023-04-18T19:11:31.058Z,85.96
2023-04-18T19:14:35.075Z,86.79
2023-04-18T19:17:38.330Z,86.86
2023-04-18T19:20:42.532Z,87.25
2023-04-18T19:23:47.362Z,87.74
2023-04-18T19:26:50.240Z,88.15
2023-04-18T19:29:53.365Z,88.37
2023-04-18T19:32:55.986Z,87.73
2023-04-18T19:35:59.413Z,88.11
2023-04-18T19:39:02.442Z,87.76
2023-04-18T19:42:05.456Z,86.94
2023-04-18T19:45:08.095Z,87.07
2023-04-18T19:48:11.233Z,87.61
2023-04-18T19:51:17.093Z,87.78
2023-04-18T19:54:22.012Z,87.47
2023-04-18T19:57:25.851Z,87.93
2023-04-18T20:00:30.249Z,87.93
2023-04-18T20:03:34.882Z,88.21
2023-04-18T20:06:37.792Z,88.29
2023-04-18T20:09:42.648Z,88.49
2023-04-18T20:12:45.551Z,88.64
2023-04-18T20:15:48.651Z,88.01
2023-04-18T20:18:54.800Z,88.14
2023-04-18T20:21:57.571Z,88.46
2023-04-18T20:25:02.290Z,88.82
2023-04-18T20:28:05.032Z,88.62
2023-04-18T20:31:08.098Z,88.66
2023-04-18T20:34:10.881Z,88.64
2023-04-18T20:37:16.591Z,89.00
2023-04-18T20:40:19.076Z,88.94
2023-04-18T20:43:29.138Z,88.81
2023-04-18T20:46:33.271Z,88.45
2023-04-18T20:49:36.195Z,88.64
2023-04-18T20:52:38.828Z,88.52
2023-04-18T20:55:41.132Z,88.72
2023-04-18T20:58:43.728Z,88.51
2023-04-18T21:01:48.715Z,88.41
2023-04-18T21:04:51.365Z,88.25
2023-04-18T21:07:53.502Z,88.37
2023-04-18T21:10:55.744Z,88.74
2023-04-18T21:13:57.809Z,88.33
2023-04-18T21:17:00.666Z,88.32
2023-04-18T21:20:03.691Z,88.25
2023-04-18T21:23:06.297Z,87.15
2023-04-18T21:26:13.765Z,87.48
2023-04-18T21:29:16.031Z,87.88
2023-04-18T21:32:18.120Z,87.86
2023-04-18T21:35:21.913Z,87.69
2023-04-18T21:38:26.105Z,87.40
2023-04-18T21:41:28.504Z,87.39
2023-04-18T21:44:30.795Z,87.49
2023-04-18T21:47:33.254Z,87.30
2023-04-18T21:50:37.754Z,87.89
2023-04-18T21:53:41.183Z,87.30
2023-04-18T21:56:43.809Z,87.35
2023-04-18T21:59:46.056Z,87.50
2023-04-18T22:02:48.429Z,87.54
2023-04-18T22:05:52.824Z,86.80
2023-04-18T22:08:54.939Z,87.28
2023-04-18T22:11:57.245Z,87.77
2023-04-18T22:14:59.527Z,87.85
2023-04-18T22:18:02.012Z,88.26
2023-04-18T22:21:04.434Z,88.08
2023-04-18T22:24:07.390Z,88.40
2023-04-18T22:27:09.648Z,88.51
2023-04-18T22:30:12.618Z,88.58
2023-04-18T22:33:14.817Z,88.82
2023-04-18T22:36:16.958Z,89.14
2023-04-18T22:39:19.183Z,89.34
2023-04-18T22:42:21.362Z,89.37
2023-04-18T22:45:23.689Z,89.25
2023-04-18T22:48:25.967Z,88.85
2023-04-18T22:51:29.034Z,89.08
2023-04-18T22:54:31.301Z,89.14
2023-04-18T22:57:33.467Z,89.04
2023-04-18T23:00:36.025Z,88.47
2023-04-18T23:03:38.463Z,88.68
2023-04-18T23:06:40.943Z,88.15
2023-04-18T23:09:43.233Z,87.79
2023-04-18T23:12:45.556Z,87.50
2023-04-18T23:15:47.817Z,87.61
2023-04-18T23:18:50.157Z,88.15
2023-04-18T23:21:52.418Z,88.16
2023-04-18T23:24:55.483Z,88.03
2023-04-18T23:27:57.626Z,88.08
2023-04-18T23:30:59.719Z,88.52
2023-04-18T23:34:01.876Z,87.36
2023-04-18T23:37:04.056Z,88.05
2023-04-18T23:40:07.072Z,87.86
2023-04-18T23:43:09.142Z,87.00
2023-04-18T23:46:12.321Z,87.29
2023-04-18T23:49:14.982Z,87.47
2023-04-18T23:52:17.317Z,86.26
2023-04-18T23:55:19.450Z,86.66
2023-04-18T23:58:21.541Z,86.52
